sensor_id;sensor_type;location;lat;lon;timestamp;pressure;altitude;pressure_sealevel;temperature;humidity
23363;BME280;11853;48.080;11.960;2023-02-01T00:00:46;95298.31;;;4.56;84.65
23363;BME280;11853;48.080;11.960;2023-02-01T00:03:13;95277.72;;;4.50;85.58
23363;BME280;11853;48.080;11.960;2023-02-01T00:05:39;95274.06;;;4.53;85.66
23363;BME280;11853;48.080;11.960;2023-02-01T00:08:05;95265.22;;;4.54;85.84
23363;BME280;11853;48.080;11.960;2023-02-01T00:10:31;95277.19;;;4.45;86.23
23363;BME280;11853;48.080;11.960;2023-02-01T00:12:56;95272.47;;;4.50;85.17
23363;BME280;11853;48.080;11.960;2023-02-01T00:15:22;95274.28;;;4.49;85.97
23363;BME280;11853;48.080;11.960;2023-02-01T00:17:53;95274.16;;;4.51;85.80
23363;BME280;11853;48.080;11.960;2023-02-01T00:20:19;95281.28;;;4.49;85.72
23363;BME280;11853;48.080;11.960;2023-02-01T00:22:45;95270.06;;;4.47;85.50
23363;BME280;11853;48.080;11.960;2023-02-01T00:25:10;95278.34;;;4.54;84.92
23363;BME280;11853;48.080;11.960;2023-02-01T00:27:36;95270.38;;;4.55;84.50
23363;BME280;11853;48.080;11.960;2023-02-01T00:30:02;95269.94;;;4.48;83.80
23363;BME280;11853;48.080;11.960;2023-02-01T00:32:28;95271.66;;;4.49;84.08
23363;BME280;11853;48.080;11.960;2023-02-01T00:34:54;95255.88;;;4.49;84.75
23363;BME280;11853;48.080;11.960;2023-02-01T00:37:19;95259.34;;;4.50;83.28
23363;BME280;11853;48.080;11.960;2023-02-01T00:39:45;95250.50;;;4.51;83.22
23363;BME280;11853;48.080;11.960;2023-02-01T00:42:11;95243.16;;;4.56;82.12
23363;BME280;11853;48.080;11.960;2023-02-01T00:44:36;95233.16;;;4.61;82.16
23363;BME280;11853;48.080;11.960;2023-02-01T00:47:02;95228.13;;;4.58;82.68
23363;BME280;11853;48.080;11.960;2023-02-01T00:49:28;95225.38;;;4.60;81.53
23363;BME280;11853;48.080;11.960;2023-02-01T00:51:54;95231.47;;;4.60;82.50
23363;BME280;11853;48.080;11.960;2023-02-01T00:54:20;95233.59;;;4.55;82.81
23363;BME280;11853;48.080;11.960;2023-02-01T00:56:46;95234.31;;;4.57;82.37
23363;BME280;11853;48.080;11.960;2023-02-01T00:59:12;95236.31;;;4.54;82.78
23363;BME280;11853;48.080;11.960;2023-02-01T01:01:38;95230.63;;;4.60;82.49
23363;BME280;11853;48.080;11.960;2023-02-01T01:04:04;95227.09;;;4.61;83.12
23363;BME280;11853;48.080;11.960;2023-02-01T01:06:31;95231.69;;;4.57;83.69
23363;BME280;11853;48.080;11.960;2023-02-01T01:08:59;95248.72;;;4.64;84.03
23363;BME280;11853;48.080;11.960;2023-02-01T01:11:27;95255.44;;;4.56;85.90
23363;BME280;11853;48.080;11.960;2023-02-01T01:13:55;95259.84;;;4.42;89.56
23363;BME280;11853;48.080;11.960;2023-02-01T01:16:22;95246.75;;;4.29;92.39
23363;BME280;11853;48.080;11.960;2023-02-01T01:18:48;95257.47;;;4.26;93.27
23363;BME280;11853;48.080;11.960;2023-02-01T01:21:15;95249.75;;;4.23;95.36
23363;BME280;11853;48.080;11.960;2023-02-01T01:23:42;95257.97;;;4.32;96.29
23363;BME280;11853;48.080;11.960;2023-02-01T01:26:13;95249.75;;;4.23;98.14
23363;BME280;11853;48.080;11.960;2023-02-01T01:28:39;95249.25;;;4.18;98.78
23363;BME280;11853;48.080;11.960;2023-02-01T01:31:10;95253.13;;;4.13;99.82
23363;BME280;11853;48.080;11.960;2023-02-01T01:33:36;95245.13;;;4.14;100.00
23363;BME280;11853;48.080;11.960;2023-02-01T01:36:05;95253.13;;;4.13;100.00
23363;BME280;11853;48.080;11.960;2023-02-01T01:38:31;95245.34;;;4.11;100.00
23363;BME280;11853;48.080;11.960;2023-02-01T01:40:57;95244.09;;;4.17;100.00
23363;BME280;11853;48.080;11.960;2023-02-01T01:43:23;95234.44;;;4.17;100.00
23363;BME280;11853;48.080;11.960;2023-02-01T01:45:50;95244.59;;;4.09;100.00
23363;BME280;11853;48.080;11.960;2023-02-01T01:48:22;95232.56;;;4.06;100.00
23363;BME280;11853;48.080;11.960;2023-02-01T01:50:56;95232.66;;;4.05;100.00
23363;BME280;11853;48.080;11.960;2023-02-01T01:53:27;95228.22;;;4.05;100.00
23363;BME280;11853;48.080;11.960;2023-02-01T01:55:54;95220.69;;;4.01;100.00
23363;BME280;11853;48.080;11.960;2023-02-01T01:58:24;95212.81;;;4.01;100.00
23363;BME280;11853;48.080;11.960;2023-02-01T02:00:51;95201.03;;;3.94;100.00
23363;BME280;11853;48.080;11.960;2023-02-01T02:03:21;95194.44;;;4.01;100.00
23363;BME280;11853;48.080;11.960;2023-02-01T02:05:50;95190.94;;;4.00;100.00
23363;BME280;11853;48.080;11.960;2023-02-01T02:08:18;95197.06;;;4.01;100.00
23363;BME280;11853;48.080;11.960;2023-02-01T02:10:47;95192.75;;;4.00;100.00
23363;BME280;11853;48.080;11.960;2023-02-01T02:13:52;95191.91;;;3.99;100.00
23363;BME280;11853;48.080;11.960;2023-02-01T02:25:19;95204.81;;;3.90;100.00
23363;BME280;11853;48.080;11.960;2023-02-01T02:36:30;95203.97;;;4.02;100.00
23363;BME280;11853;48.080;11.960;2023-02-01T02:45:30;95211.09;;;4.00;100.00
23363;BME280;11853;48.080;11.960;2023-02-01T02:48:45;95214.47;;;4.02;100.00
23363;BME280;11853;48.080;11.960;2023-02-01T02:51:15;95212.38;;;4.07;100.00
23363;BME280;11853;48.080;11.960;2023-02-01T02:54:16;95207.13;;;4.07;100.00
23363;BME280;11853;48.080;11.960;2023-02-01T02:57:04;95200.19;;;4.06;100.00
23363;BME280;11853;48.080;11.960;2023-02-01T02:59:51;95193.69;;;3.99;100.00
23363;BME280;11853;48.080;11.960;2023-02-01T03:02:37;95190.84;;;4.02;100.00
23363;BME280;11853;48.080;11.960;2023-02-01T03:05:21;95189.19;;;4.01;100.00
23363;BME280;11853;48.080;11.960;2023-02-01T03:07:55;95184.44;;;4.06;100.00
23363;BME280;11853;48.080;11.960;2023-02-01T03:10:30;95193.56;;;4.00;100.00
23363;BME280;11853;48.080;11.960;2023-02-01T03:16:50;95184.53;;;3.92;100.00
23363;BME280;11853;48.080;11.960;2023-02-01T03:24:09;95174.47;;;3.98;100.00
23363;BME280;11853;48.080;11.960;2023-02-01T03:26:41;95176.16;;;3.99;100.00
23363;BME280;11853;48.080;11.960;2023-02-01T03:29:13;95171.66;;;4.01;100.00
23363;BME280;11853;48.080;11.960;2023-02-01T03:31:41;95172.47;;;4.02;100.00
23363;BME280;11853;48.080;11.960;2023-02-01T03:34:07;95168.69;;;4.06;100.00
23363;BME280;11853;48.080;11.960;2023-02-01T03:39:45;95169.34;;;4.10;100.00
23363;BME280;11853;48.080;11.960;2023-02-01T03:42:23;95174.16;;;4.16;100.00
23363;BME280;11853;48.080;11.960;2023-02-01T03:44:56;95159.25;;;4.16;100.00
23363;BME280;11853;48.080;11.960;2023-02-01T03:47:25;95151.91;;;4.09;100.00
23363;BME280;11853;48.080;11.960;2023-02-01T03:49:58;95167.22;;;4.02;100.00
23363;BME280;11853;48.080;11.960;2023-02-01T03:52:34;95160.50;;;4.11;100.00
23363;BME280;11853;48.080;11.960;2023-02-01T03:55:04;95158.19;;;4.06;100.00
23363;BME280;11853;48.080;11.960;2023-02-01T03:57:37;95163.22;;;4.09;100.00
23363;BME280;11853;48.080;11.960;2023-02-01T04:00:24;95157.06;;;4.10;100.00
23363;BME280;11853;48.080;11.960;2023-02-01T04:02:51;95161.56;;;4.08;100.00
23363;BME280;11853;48.080;11.960;2023-02-01T04:05:17;95142.22;;;4.09;100.00
23363;BME280;11853;48.080;11.960;2023-02-01T04:07:43;95143.94;;;4.10;100.00
23363;BME280;11853;48.080;11.960;2023-02-01T04:10:09;95144.25;;;4.18;100.00
23363;BME280;11853;48.080;11.960;2023-02-01T04:12:36;95140.03;;;4.16;100.00
23363;BME280;11853;48.080;11.960;2023-02-01T04:15:02;95146.66;;;4.21;100.00
23363;BME280;11853;48.080;11.960;2023-02-01T04:17:29;95154.63;;;4.20;100.00
23363;BME280;11853;48.080;11.960;2023-02-01T04:19:54;95151.34;;;4.29;100.00
23363;BME280;11853;48.080;11.960;2023-02-01T04:22:20;95148.31;;;4.22;100.00
23363;BME280;11853;48.080;11.960;2023-02-01T04:24:45;95147.47;;;4.22;100.00
23363;BME280;11853;48.080;11.960;2023-02-01T04:27:11;95143.28;;;4.19;100.00
23363;BME280;11853;48.080;11.960;2023-02-01T04:29:37;95142.22;;;4.22;100.00
23363;BME280;11853;48.080;11.960;2023-02-01T04:32:03;95144.25;;;4.18;100.00
23363;BME280;11853;48.080;11.960;2023-02-01T04:34:28;95144.53;;;4.14;100.00
23363;BME280;11853;48.080;11.960;2023-02-01T04:36:54;95142.44;;;4.19;100.00
23363;BME280;11853;48.080;11.960;2023-02-01T04:39:19;95139.00;;;4.18;100.00
23363;BME280;11853;48.080;11.960;2023-02-01T04:41:45;95140.34;;;4.24;100.00
23363;BME280;11853;48.080;11.960;2023-02-01T04:44:14;95142.44;;;4.19;100.00
23363;BME280;11853;48.080;11.960;2023-02-01T04:46:40;95137.81;;;4.22;100.00
23363;BME280;11853;48.080;11.960;2023-02-01T04:49:05;95131.13;;;4.18;100.00
23363;BME280;11853;48.080;11.960;2023-02-01T04:51:31;95134.56;;;4.19;100.00
23363;BME280;11853;48.080;11.960;2023-02-01T04:53:57;95118.69;;;4.20;100.00
23363;BME280;11853;48.080;11.960;2023-02-01T04:56:23;95125.66;;;4.21;100.00
23363;BME280;11853;48.080;11.960;2023-02-01T04:58:48;95120.41;;;4.21;100.00
23363;BME280;11853;48.080;11.960;2023-02-01T05:01:14;95134.22;;;4.23;100.00
23363;BME280;11853;48.080;11.960;2023-02-01T05:03:39;95124.25;;;4.28;99.62
23363;BME280;11853;48.080;11.960;2023-02-01T05:06:05;95137.28;;;4.30;99.68
23363;BME280;11853;48.080;11.960;2023-02-01T05:08:31;95130.47;;;4.27;98.22
23363;BME280;11853;48.080;11.960;2023-02-01T05:10:57;95127.44;;;4.21;98.86
23363;BME280;11853;48.080;11.960;2023-02-01T05:13:24;95131.13;;;4.18;99.64
23363;BME280;11853;48.080;11.960;2023-02-01T05:16:28;95124.69;;;4.22;99.41
23363;BME280;11853;48.080;11.960;2023-02-01T05:18:53;95141.63;;;4.18;98.96
23363;BME280;11853;48.080;11.960;2023-02-01T05:21:19;95134.66;;;4.17;98.88
23363;BME280;11853;48.080;11.960;2023-02-01T05:23:45;95137.81;;;4.22;98.69
23363;BME280;11853;48.080;11.960;2023-02-01T05:26:29;95136.25;;;4.20;98.48
23363;BME280;11853;48.080;11.960;2023-02-01T05:28:55;95142.09;;;4.23;98.33
23363;BME280;11853;48.080;11.960;2023-02-01T05:31:21;95132.16;;;4.16;98.63
23363;BME280;11853;48.080;11.960;2023-02-01T05:33:47;95137.06;;;4.20;97.70
23363;BME280;11853;48.080;11.960;2023-02-01T05:36:13;95149.81;;;4.26;97.83
23363;BME280;11853;48.080;11.960;2023-02-01T05:38:59;95143.91;;;4.23;97.02
23363;BME280;11853;48.080;11.960;2023-02-01T05:41:25;95132.78;;;4.19;98.42
23363;BME280;11853;48.080;11.960;2023-02-01T05:43:50;95138.88;;;4.20;98.21
23363;BME280;11853;48.080;11.960;2023-02-01T05:46:16;95149.88;;;4.25;96.68
23363;BME280;11853;48.080;11.960;2023-02-01T05:48:42;95155.44;;;4.33;96.26
23363;BME280;11853;48.080;11.960;2023-02-01T05:51:08;95145.78;;;4.34;96.93
23363;BME280;11853;48.080;11.960;2023-02-01T05:53:34;95146.22;;;4.27;96.70
23363;BME280;11853;48.080;11.960;2023-02-01T05:55:59;95147.34;;;4.23;96.21
23363;BME280;11853;48.080;11.960;2023-02-01T05:58:26;95151.91;;;4.21;97.43
23363;BME280;11853;48.080;11.960;2023-02-01T06:00:51;95138.88;;;4.33;95.68
23363;BME280;11853;48.080;11.960;2023-02-01T06:03:17;95144.22;;;4.31;95.05
23363;BME280;11853;48.080;11.960;2023-02-01T06:05:47;95130.56;;;4.26;95.85
23363;BME280;11853;48.080;11.960;2023-02-01T06:08:13;95123.72;;;4.23;96.07
23363;BME280;11853;48.080;11.960;2023-02-01T06:10:38;95125.88;;;4.18;95.60
23363;BME280;11853;48.080;11.960;2023-02-01T06:13:04;95129.19;;;4.20;95.98
23363;BME280;11853;48.080;11.960;2023-02-01T06:15:30;95122.28;;;4.19;96.43
23363;BME280;11853;48.080;11.960;2023-02-01T06:17:56;95126.25;;;4.25;95.10
23363;BME280;11853;48.080;11.960;2023-02-01T06:20:22;95118.69;;;4.20;95.90
23363;BME280;11853;48.080;11.960;2023-02-01T06:22:47;95124.38;;;4.14;95.97
23363;BME280;11853;48.080;11.960;2023-02-01T06:25:13;95120.69;;;4.17;96.38
23363;BME280;11853;48.080;11.960;2023-02-01T06:27:39;95116.06;;;4.20;96.24
23363;BME280;11853;48.080;11.960;2023-02-01T06:30:06;95117.66;;;4.23;96.37
23363;BME280;11853;48.080;11.960;2023-02-01T06:32:33;95114.41;;;4.19;96.13
23363;BME280;11853;48.080;11.960;2023-02-01T06:34:58;95111.16;;;4.16;95.67
23363;BME280;11853;48.080;11.960;2023-02-01T06:37:25;95115.13;;;4.21;96.01
23363;BME280;11853;48.080;11.960;2023-02-01T06:39:53;95117.75;;;4.21;95.64
23363;BME280;11853;48.080;11.960;2023-02-01T06:42:19;95128.97;;;4.23;95.64
23363;BME280;11853;48.080;11.960;2023-02-01T06:44:44;95119.97;;;4.15;94.98
23363;BME280;11853;48.080;11.960;2023-02-01T06:47:10;95122.50;;;4.16;94.10
23363;BME280;11853;48.080;11.960;2023-02-01T06:49:36;95127.75;;;4.16;94.58
23363;BME280;11853;48.080;11.960;2023-02-01T06:52:01;95134.88;;;4.14;94.78
23363;BME280;11853;48.080;11.960;2023-02-01T06:54:27;95138.03;;;4.19;94.96
23363;BME280;11853;48.080;11.960;2023-02-01T06:56:53;95130.69;;;4.24;95.39
23363;BME280;11853;48.080;11.960;2023-02-01T06:59:19;95133.63;;;4.20;94.46
23363;BME280;11853;48.080;11.960;2023-02-01T07:01:44;95133.53;;;4.21;94.51
23363;BME280;11853;48.080;11.960;2023-02-01T07:04:12;95117.44;;;4.26;94.06
23363;BME280;11853;48.080;11.960;2023-02-01T07:06:39;95131.41;;;4.26;93.56
23363;BME280;11853;48.080;11.960;2023-02-01T07:09:05;95138.22;;;4.29;93.81
23363;BME280;11853;48.080;11.960;2023-02-01T07:11:36;95125.22;;;4.27;93.85
23363;BME280;11853;48.080;11.960;2023-02-01T07:14:06;95142.63;;;4.28;93.85
23363;BME280;11853;48.080;11.960;2023-02-01T07:16:31;95132.13;;;4.28;93.89
23363;BME280;11853;48.080;11.960;2023-02-01T07:18:57;95125.00;;;4.31;93.50
23363;BME280;11853;48.080;11.960;2023-02-01T07:21:23;95125.44;;;4.24;94.65
23363;BME280;11853;48.080;11.960;2023-02-01T07:23:49;95119.75;;;4.31;94.21
23363;BME280;11853;48.080;11.960;2023-02-01T07:26:14;95125.72;;;4.33;93.78
23363;BME280;11853;48.080;11.960;2023-02-01T07:28:42;95127.09;;;4.25;93.82
23363;BME280;11853;48.080;11.960;2023-02-01T07:31:10;95129.28;;;4.32;93.75
23363;BME280;11853;48.080;11.960;2023-02-01T07:33:39;95134.44;;;4.33;93.46
23363;BME280;11853;48.080;11.960;2023-02-01T07:36:06;95129.81;;;4.37;93.26
23363;BME280;11853;48.080;11.960;2023-02-01T07:38:32;95111.66;;;4.34;93.83
23363;BME280;11853;48.080;11.960;2023-02-01T07:40:59;95109.16;;;4.32;94.14
23363;BME280;11853;48.080;11.960;2023-02-01T07:43:26;95109.16;;;4.32;95.58
23363;BME280;11853;48.080;11.960;2023-02-01T07:45:53;95086.13;;;4.36;94.22
23363;BME280;11853;48.080;11.960;2023-02-01T07:48:20;95106.56;;;4.43;93.39
23363;BME280;11853;48.080;11.960;2023-02-01T07:50:46;95093.88;;;4.37;92.82
23363;BME280;11853;48.080;11.960;2023-02-01T07:53:11;95106.16;;;4.37;92.43
23363;BME280;11853;48.080;11.960;2023-02-01T07:55:40;95093.66;;;4.40;92.86
23363;BME280;11853;48.080;11.960;2023-02-01T07:58:06;95113.63;;;4.43;91.97
23363;BME280;11853;48.080;11.960;2023-02-01T08:00:32;95112.78;;;4.42;92.05
23363;BME280;11853;48.080;11.960;2023-02-01T08:03:16;95116.97;;;4.45;90.61
23363;BME280;11853;48.080;11.960;2023-02-01T08:05:42;95113.84;;;4.40;91.84
23363;BME280;11853;48.080;11.960;2023-02-01T08:08:08;95120.97;;;4.38;90.95
23363;BME280;11853;48.080;11.960;2023-02-01T08:10:33;95107.66;;;4.41;91.27
23363;BME280;11853;48.080;11.960;2023-02-01T08:13:01;95112.03;;;5.25;100.00
23363;BME280;11853;48.080;11.960;2023-02-01T08:15:28;95135.47;;;6.44;100.00
23363;BME280;11853;48.080;11.960;2023-02-01T08:17:54;95144.78;;;7.25;100.00
23363;BME280;11853;48.080;11.960;2023-02-01T08:20:21;95142.16;;;7.78;98.16
23363;BME280;11853;48.080;11.960;2023-02-01T08:22:48;95150.13;;;7.03;84.35
23363;BME280;11853;48.080;11.960;2023-02-01T08:25:14;95144.91;;;6.46;84.81
23363;BME280;11853;48.080;11.960;2023-02-01T08:27:40;95143.41;;;5.86;87.56
23363;BME280;11853;48.080;11.960;2023-02-01T08:30:06;95147.88;;;5.50;89.73
23363;BME280;11853;48.080;11.960;2023-02-01T08:32:33;95166.25;;;5.39;90.68
23363;BME280;11853;48.080;11.960;2023-02-01T08:34:59;95172.47;;;5.14;91.60
23363;BME280;11853;48.080;11.960;2023-02-01T08:37:24;95180.88;;;5.06;91.82
23363;BME280;11853;48.080;11.960;2023-02-01T08:39:50;95176.09;;;5.00;93.07
23363;BME280;11853;48.080;11.960;2023-02-01T08:42:16;95176.66;;;4.92;93.53
23363;BME280;11853;48.080;11.960;2023-02-01T08:45:01;95169.59;;;4.93;92.42
23363;BME280;11853;48.080;11.960;2023-02-01T08:47:28;95163.31;;;4.83;92.57
23363;BME280;11853;48.080;11.960;2023-02-01T08:49:56;95158.91;;;4.83;92.78
23363;BME280;11853;48.080;11.960;2023-02-01T08:52:21;95165.88;;;4.71;93.23
23363;BME280;11853;48.080;11.960;2023-02-01T08:54:47;95166.81;;;4.70;93.16
23363;BME280;11853;48.080;11.960;2023-02-01T08:57:14;95157.06;;;4.72;93.75
23363;BME280;11853;48.080;11.960;2023-02-01T08:59:40;95159.56;;;4.74;93.67
23363;BME280;11853;48.080;11.960;2023-02-01T09:02:07;95162.09;;;4.76;93.13
23363;BME280;11853;48.080;11.960;2023-02-01T09:04:33;95154.31;;;4.74;93.07
23363;BME280;11853;48.080;11.960;2023-02-01T09:06:58;95162.56;;;4.81;93.57
23363;BME280;11853;48.080;11.960;2023-02-01T09:09:24;95158.78;;;4.85;92.24
23363;BME280;11853;48.080;11.960;2023-02-01T09:11:52;95160.97;;;4.91;92.96
23363;BME280;11853;48.080;11.960;2023-02-01T09:14:18;95168.94;;;5.02;92.81
23363;BME280;11853;48.080;11.960;2023-02-01T09:16:44;95169.97;;;5.12;91.97
23363;BME280;11853;48.080;11.960;2023-02-01T09:19:09;95169.28;;;5.22;90.63
23363;BME280;11853;48.080;11.960;2023-02-01T09:21:35;95167.25;;;5.25;90.19
23363;BME280;11853;48.080;11.960;2023-02-01T09:24:01;95170.56;;;5.16;90.39
23363;BME280;11853;48.080;11.960;2023-02-01T09:26:26;95178.56;;;5.14;90.57
23363;BME280;11853;48.080;11.960;2023-02-01T09:28:52;95184.16;;;5.10;90.20
23363;BME280;11853;48.080;11.960;2023-02-01T09:31:18;95169.53;;;5.06;91.27
23363;BME280;11853;48.080;11.960;2023-02-01T09:33:45;95185.72;;;5.12;90.48
23363;BME280;11853;48.080;11.960;2023-02-01T09:36:11;95175.91;;;5.14;90.11
23363;BME280;11853;48.080;11.960;2023-02-01T09:38:36;95182.38;;;5.10;90.31
23363;BME280;11853;48.080;11.960;2023-02-01T09:41:10;95182.13;;;5.13;90.92
23363;BME280;11853;48.080;11.960;2023-02-01T09:46:23;95179.94;;;5.31;89.44
23363;BME280;11853;48.080;11.960;2023-02-01T09:48:53;95183.59;;;5.41;88.90
23363;BME280;11853;48.080;11.960;2023-02-01T09:51:24;95190.19;;;5.47;88.22
23363;BME280;11853;48.080;11.960;2023-02-01T09:54:04;95186.16;;;5.54;88.67
23363;BME280;11853;48.080;11.960;2023-02-01T09:56:44;95182.34;;;5.58;87.45
23363;BME280;11853;48.080;11.960;2023-02-01T09:59:32;95191.81;;;5.61;87.70
23363;BME280;11853;48.080;11.960;2023-02-01T10:02:02;95180.94;;;5.65;87.99
23363;BME280;11853;48.080;11.960;2023-02-01T10:04:28;95189.19;;;5.72;87.37
23363;BME280;11853;48.080;11.960;2023-02-01T10:09:45;95174.88;;;5.76;87.75
23363;BME280;11853;48.080;11.960;2023-02-01T10:12:49;95179.28;;;5.76;87.35
23363;BME280;11853;48.080;11.960;2023-02-01T10:18:48;95170.31;;;5.67;88.26
23363;BME280;11853;48.080;11.960;2023-02-01T10:24:24;95185.03;;;5.70;87.23
23363;BME280;11853;48.080;11.960;2023-02-01T10:29:42;95176.75;;;5.74;86.18
23363;BME280;11853;48.080;11.960;2023-02-01T10:32:16;95190.53;;;5.67;87.41
23363;BME280;11853;48.080;11.960;2023-02-01T10:34:45;95193.72;;;5.59;87.09
23363;BME280;11853;48.080;11.960;2023-02-01T10:39:49;95196.56;;;5.56;87.98
23363;BME280;11853;48.080;11.960;2023-02-01T10:42:18;95190.56;;;5.54;87.31
23363;BME280;11853;48.080;11.960;2023-02-01T10:44:46;95177.69;;;5.62;86.37
23363;BME280;11853;48.080;11.960;2023-02-01T10:47:14;95185.47;;;5.63;85.93
23363;BME280;11853;48.080;11.960;2023-02-01T10:49:49;95169.91;;;5.60;86.46
23363;BME280;11853;48.080;11.960;2023-02-01T10:52:40;95185.47;;;5.63;86.09
23363;BME280;11853;48.080;11.960;2023-02-01T10:55:41;95163.94;;;5.58;86.73
23363;BME280;11853;48.080;11.960;2023-02-01T10:58:26;95179.25;;;5.64;86.30
23363;BME280;11853;48.080;11.960;2023-02-01T11:01:10;95173.25;;;5.62;86.95
23363;BME280;11853;48.080;11.960;2023-02-01T11:03:54;95172.75;;;5.57;87.42
23363;BME280;11853;48.080;11.960;2023-02-01T11:08:53;95181.88;;;5.64;87.57
23363;BME280;11853;48.080;11.960;2023-02-01T11:11:20;95184.75;;;5.61;87.09
23363;BME280;11853;48.080;11.960;2023-02-01T11:14:04;95183.22;;;5.70;87.71
23363;BME280;11853;48.080;11.960;2023-02-01T11:16:38;95178.28;;;5.65;87.68
23363;BME280;11853;48.080;11.960;2023-02-01T11:19:04;95174.50;;;5.70;87.61
23363;BME280;11853;48.080;11.960;2023-02-01T11:21:31;95171.72;;;5.71;87.84
23363;BME280;11853;48.080;11.960;2023-02-01T11:24:05;95183.72;;;5.75;88.30
23363;BME280;11853;48.080;11.960;2023-02-01T11:26:39;95177.22;;;5.68;86.15
23363;BME280;11853;48.080;11.960;2023-02-01T11:29:13;95177.59;;;5.75;86.65
23363;BME280;11853;48.080;11.960;2023-02-01T11:31:44;95188.34;;;5.72;87.19
23363;BME280;11853;48.080;11.960;2023-02-01T11:34:41;95193.75;;;5.70;86.69
23363;BME280;11853;48.080;11.960;2023-02-01T11:37:38;95196.84;;;5.64;86.88
23363;BME280;11853;48.080;11.960;2023-02-01T11:43:00;95206.63;;;5.62;88.19
23363;BME280;11853;48.080;11.960;2023-02-01T11:45:33;95188.09;;;5.63;87.75
23363;BME280;11853;48.080;11.960;2023-02-01T11:48:08;95186.41;;;5.62;88.06
23363;BME280;11853;48.080;11.960;2023-02-01T11:56:44;95181.94;;;5.52;87.76
23363;BME280;11853;48.080;11.960;2023-02-01T11:59:19;95190.19;;;5.47;90.11
23363;BME280;11853;48.080;11.960;2023-02-01T12:02:11;95182.13;;;5.37;90.16
23363;BME280;11853;48.080;11.960;2023-02-01T12:16:51;95171.06;;;5.45;90.43
23363;BME280;11853;48.080;11.960;2023-02-01T12:25:17;95166.53;;;5.47;90.16
23363;BME280;11853;48.080;11.960;2023-02-01T12:28:25;95149.16;;;5.45;90.03
23363;BME280;11853;48.080;11.960;2023-02-01T12:39:26;95152.34;;;5.37;89.84
23363;BME280;11853;48.080;11.960;2023-02-01T12:42:09;95148.22;;;5.46;88.68
23363;BME280;11853;48.080;11.960;2023-02-01T12:44:52;95149.22;;;5.32;89.27
23363;BME280;11853;48.080;11.960;2023-02-01T12:49:57;95137.63;;;5.34;89.81
23363;BME280;11853;48.080;11.960;2023-02-01T12:52:38;95146.59;;;5.32;88.71
23363;BME280;11853;48.080;11.960;2023-02-01T12:55:19;95152.09;;;5.29;89.40
23363;BME280;11853;48.080;11.960;2023-02-01T12:58:16;95152.81;;;5.31;88.66
23363;BME280;11853;48.080;11.960;2023-02-01T13:01:02;95143.34;;;5.28;89.51
23363;BME280;11853;48.080;11.960;2023-02-01T13:06:13;95143.63;;;5.36;89.83
23363;BME280;11853;48.080;11.960;2023-02-01T13:08:45;95157.84;;;5.34;89.01
23363;BME280;11853;48.080;11.960;2023-02-01T13:13:49;95148.16;;;5.34;89.17
23363;BME280;11853;48.080;11.960;2023-02-01T13:16:40;95138.38;;;5.36;88.31
23363;BME280;11853;48.080;11.960;2023-02-01T13:22:10;95139.44;;;5.34;87.45
23363;BME280;11853;48.080;11.960;2023-02-01T13:24:43;95140.63;;;5.30;87.07
23363;BME280;11853;48.080;11.960;2023-02-01T13:27:15;95146.00;;;5.28;86.76
23363;BME280;11853;48.080;11.960;2023-02-01T13:29:49;95134.13;;;5.23;86.28
23363;BME280;11853;48.080;11.960;2023-02-01T13:38:10;95144.41;;;5.26;86.56
23363;BME280;11853;48.080;11.960;2023-02-01T13:40:44;95131.41;;;5.24;86.31
23363;BME280;11853;48.080;11.960;2023-02-01T13:43:23;95137.78;;;5.33;85.95
23363;BME280;11853;48.080;11.960;2023-02-01T13:45:54;95136.56;;;5.37;86.16
23363;BME280;11853;48.080;11.960;2023-02-01T13:48:47;95133.00;;;5.38;86.32
23363;BME280;11853;48.080;11.960;2023-02-01T13:51:12;95138.94;;;5.29;87.43
23363;BME280;11853;48.080;11.960;2023-02-01T13:53:45;95137.25;;;5.28;87.89
23363;BME280;11853;48.080;11.960;2023-02-01T13:56:18;95137.25;;;5.28;88.17
23363;BME280;11853;48.080;11.960;2023-02-01T13:58:46;95140.63;;;5.30;88.33
23363;BME280;11853;48.080;11.960;2023-02-01T14:03:49;95135.38;;;5.30;89.26
23363;BME280;11853;48.080;11.960;2023-02-01T14:06:41;95141.78;;;5.26;89.99
23363;BME280;11853;48.080;11.960;2023-02-01T14:19:28;95145.66;;;5.33;91.39
23363;BME280;11853;48.080;11.960;2023-02-01T14:21:56;95131.03;;;5.29;91.32
23363;BME280;11853;48.080;11.960;2023-02-01T14:24:29;95126.50;;;5.31;91.74
23363;BME280;11853;48.080;11.960;2023-02-01T14:27:17;95147.09;;;5.37;91.64
23363;BME280;11853;48.080;11.960;2023-02-01T14:29:51;95134.91;;;5.36;91.00
23363;BME280;11853;48.080;11.960;2023-02-01T14:32:25;95125.81;;;5.40;91.66
23363;BME280;11853;48.080;11.960;2023-02-01T14:34:53;95133.44;;;5.32;91.58
23363;BME280;11853;48.080;11.960;2023-02-01T14:39:50;95131.78;;;5.31;91.70
23363;BME280;11853;48.080;11.960;2023-02-01T15:01:35;95145.09;;;5.16;91.18
23363;BME280;11853;48.080;11.960;2023-02-01T15:04:10;95129.41;;;5.15;89.85
23363;BME280;11853;48.080;11.960;2023-02-01T15:06:41;95140.06;;;5.13;90.67
23363;BME280;11853;48.080;11.960;2023-02-01T15:09:25;95134.59;;;5.16;90.40
23363;BME280;11853;48.080;11.960;2023-02-01T15:14:48;95130.50;;;5.12;87.46
23363;BME280;11853;48.080;11.960;2023-02-01T15:17:30;95130.63;;;5.11;87.77
23363;BME280;11853;48.080;11.960;2023-02-01T15:20:12;95142.69;;;5.13;87.62
23363;BME280;11853;48.080;11.960;2023-02-01T15:22:38;95134.19;;;5.10;87.76
23363;BME280;11853;48.080;11.960;2023-02-01T15:25:04;95129.88;;;5.09;87.90
23363;BME280;11853;48.080;11.960;2023-02-01T15:27:32;95140.91;;;5.14;87.16
23363;BME280;11853;48.080;11.960;2023-02-01T15:30:12;95134.81;;;5.13;86.91
23363;BME280;11853;48.080;11.960;2023-02-01T15:32:41;95141.13;;;5.11;87.37
23363;BME280;11853;48.080;11.960;2023-02-01T15:41:11;95147.69;;;5.05;87.49
23363;BME280;11853;48.080;11.960;2023-02-01T15:46:34;95155.50;;;4.94;90.54
23363;BME280;11853;48.080;11.960;2023-02-01T15:49:01;95155.50;;;4.94;90.69